sensor_id;sensor_type;location;lat;lon;timestamp;pressure;altitude;pressure_sealevel;temperature;humidity
58668;BME280;59852;43.086;25.634;2023-02-22T00:00:57;98708.69;;;10.99;46.40
58668;BME280;59852;43.086;25.634;2023-02-22T00:03:28;98710.16;;;11.03;45.64
58668;BME280;59852;43.086;25.634;2023-02-22T00:06:03;98703.56;;;10.97;45.88
58668;BME280;59852;43.086;25.634;2023-02-22T00:08:30;98709.19;;;11.04;45.69
58668;BME280;59852;43.086;25.634;2023-02-22T00:10:56;98709.25;;;10.91;46.17
58668;BME280;59852;43.086;25.634;2023-02-22T00:13:21;98704.69;;;11.06;45.99
58668;BME280;59852;43.086;25.634;2023-02-22T00:15:47;98707.03;;;10.98;46.44
58668;BME280;59852;43.086;25.634;2023-02-22T00:18:14;98701.13;;;11.07;45.95
58668;BME280;59852;43.086;25.634;2023-02-22T00:20:39;98700.78;;;11.11;46.06
58668;BME280;59852;43.086;25.634;2023-02-22T00:23:05;98699.28;;;10.96;46.37
58668;BME280;59852;43.086;25.634;2023-02-22T00:25:31;98700.41;;;11.05;46.32
58668;BME280;59852;43.086;25.634;2023-02-22T00:27:57;98698.16;;;11.11;45.78
58668;BME280;59852;43.086;25.634;2023-02-22T00:30:24;98696.31;;;11.01;46.20
58668;BME280;59852;43.086;25.634;2023-02-22T00:32:51;98703.41;;;10.87;46.60
58668;BME280;59852;43.086;25.634;2023-02-22T00:35:17;98697.28;;;11.00;46.58
58668;BME280;59852;43.086;25.634;2023-02-22T00:37:45;98699.16;;;10.98;46.67
58668;BME280;59852;43.086;25.634;2023-02-22T00:40:13;98695.44;;;10.89;47.02
58668;BME280;59852;43.086;25.634;2023-02-22T00:42:39;98692.47;;;10.82;46.42
58668;BME280;59852;43.086;25.634;2023-02-22T00:45:04;98691.88;;;10.90;47.22
58668;BME280;59852;43.086;25.634;2023-02-22T00:47:30;98684.38;;;10.85;46.63
58668;BME280;59852;43.086;25.634;2023-02-22T00:49:56;98687.94;;;10.84;47.01
58668;BME280;59852;43.086;25.634;2023-02-22T00:52:21;98694.72;;;10.87;46.90
58668;BME280;59852;43.086;25.634;2023-02-22T00:54:47;98685.25;;;10.97;46.58
58668;BME280;59852;43.086;25.634;2023-02-22T00:57:12;98685.53;;;10.81;47.43
58668;BME280;59852;43.086;25.634;2023-02-22T00:59:37;98688.91;;;10.83;46.87
58668;BME280;59852;43.086;25.634;2023-02-22T01:02:03;98688.91;;;10.83;46.62
58668;BME280;59852;43.086;25.634;2023-02-22T01:04:28;98686.88;;;10.87;46.89
58668;BME280;59852;43.086;25.634;2023-02-22T01:06:54;98691.78;;;10.68;47.41
58668;BME280;59852;43.086;25.634;2023-02-22T01:09:19;98689.16;;;10.68;47.99
58668;BME280;59852;43.086;25.634;2023-02-22T01:11:45;98689.50;;;10.63;47.75
58668;BME280;59852;43.086;25.634;2023-02-22T01:14:11;98692.34;;;10.60;48.14
58668;BME280;59852;43.086;25.634;2023-02-22T01:16:37;98686.22;;;10.48;48.60
58668;BME280;59852;43.086;25.634;2023-02-22T01:19:02;98691.31;;;10.50;48.35
58668;BME280;59852;43.086;25.634;2023-02-22T01:21:28;98690.66;;;10.35;48.47
58668;BME280;59852;43.086;25.634;2023-02-22T01:23:53;98687.28;;;10.46;48.05
58668;BME280;59852;43.086;25.634;2023-02-22T01:26:19;98689.88;;;10.46;48.14
58668;BME280;59852;43.086;25.634;2023-02-22T01:28:44;98688.00;;;10.48;48.49
58668;BME280;59852;43.086;25.634;2023-02-22T01:31:10;98683.19;;;10.42;48.39
58668;BME280;59852;43.086;25.634;2023-02-22T01:33:36;98685.81;;;10.42;47.66
58668;BME280;59852;43.086;25.634;2023-02-22T01:36:01;98685.19;;;10.38;48.11
58668;BME280;59852;43.086;25.634;2023-02-22T01:38:27;98685.72;;;10.43;47.89
58668;BME280;59852;43.086;25.634;2023-02-22T01:40:53;98685.38;;;10.48;47.68
58668;BME280;59852;43.086;25.634;2023-02-22T01:43:25;98688.81;;;10.24;48.38
58668;BME280;59852;43.086;25.634;2023-02-22T01:48:21;98692.34;;;10.11;48.61
58668;BME280;59852;43.086;25.634;2023-02-22T01:51:31;98687.00;;;10.12;48.83
58668;BME280;59852;43.086;25.634;2023-02-22T01:53:39;98689.91;;;10.20;48.90
58668;BME280;59852;43.086;25.634;2023-02-22T01:56:05;98687.25;;;9.96;49.18
58668;BME280;59852;43.086;25.634;2023-02-22T01:58:32;98688.00;;;9.73;49.66
58668;BME280;59852;43.086;25.634;2023-02-22T02:00:58;98686.09;;;10.00;49.07
58668;BME280;59852;43.086;25.634;2023-02-22T02:03:27;98677.69;;;10.21;48.37
58668;BME280;59852;43.086;25.634;2023-02-22T02:05:55;98684.72;;;10.07;49.11
58668;BME280;59852;43.086;25.634;2023-02-22T02:10:55;98679.38;;;10.09;49.08
58668;BME280;59852;43.086;25.634;2023-02-22T02:13:22;98687.47;;;9.93;49.04
58668;BME280;59852;43.086;25.634;2023-02-22T02:15:48;98688.06;;;10.10;49.01
58668;BME280;59852;43.086;25.634;2023-02-22T02:18:16;98693.81;;;10.15;48.44
58668;BME280;59852;43.086;25.634;2023-02-22T02:36:28;98693.84;;;9.76;49.35
58668;BME280;59852;43.086;25.634;2023-02-22T02:41:47;98696.16;;;9.68;50.08
58668;BME280;59852;43.086;25.634;2023-02-22T02:44:16;98698.16;;;9.65;49.76
58668;BME280;59852;43.086;25.634;2023-02-22T02:46:54;98701.81;;;9.75;49.73
58668;BME280;59852;43.086;25.634;2023-02-22T02:49:25;98701.06;;;9.86;49.96
58668;BME280;59852;43.086;25.634;2023-02-22T02:51:53;98694.66;;;10.15;48.36
58668;BME280;59852;43.086;25.634;2023-02-22T02:54:20;98700.44;;;9.69;49.99
58668;BME280;59852;43.086;25.634;2023-02-22T02:56:46;98695.31;;;9.81;49.42
58668;BME280;59852;43.086;25.634;2023-02-22T03:12:56;98695.00;;;9.85;49.55
58668;BME280;59852;43.086;25.634;2023-02-22T03:15:43;98698.44;;;9.73;50.15
58668;BME280;59852;43.086;25.634;2023-02-22T03:18:14;98696.66;;;9.61;50.34
58668;BME280;59852;43.086;25.634;2023-02-22T03:25:46;98705.66;;;9.69;49.87
58668;BME280;59852;43.086;25.634;2023-02-22T03:28:13;98705.53;;;9.71;49.45
58668;BME280;59852;43.086;25.634;2023-02-22T03:30:43;98704.09;;;9.80;49.29
58668;BME280;59852;43.086;25.634;2023-02-22T03:33:14;98701.06;;;9.60;50.02
58668;BME280;59852;43.086;25.634;2023-02-22T03:35:54;98689.78;;;9.85;49.61
58668;BME280;59852;43.086;25.634;2023-02-22T03:38:21;98699.41;;;9.85;49.31
58668;BME280;59852;43.086;25.634;2023-02-22T03:40:48;98692.59;;;9.95;48.91
58668;BME280;59852;43.086;25.634;2023-02-22T03:43:17;98698.00;;;10.04;48.62
58668;BME280;59852;43.086;25.634;2023-02-22T03:45:44;98695.72;;;9.87;49.13
58668;BME280;59852;43.086;25.634;2023-02-22T03:50:38;98697.09;;;9.67;49.94
58668;BME280;59852;43.086;25.634;2023-02-22T03:53:04;98704.25;;;10.02;49.17
58668;BME280;59852;43.086;25.634;2023-02-22T03:55:31;98704.47;;;9.99;49.39
58668;BME280;59852;43.086;25.634;2023-02-22T03:57:58;98703.44;;;10.14;48.59
58668;BME280;59852;43.086;25.634;2023-02-22T04:00:25;98699.47;;;9.96;49.43
58668;BME280;59852;43.086;25.634;2023-02-22T04:02:51;98701.34;;;10.06;49.56
58668;BME280;59852;43.086;25.634;2023-02-22T04:05:16;98699.69;;;10.05;49.35
58668;BME280;59852;43.086;25.634;2023-02-22T04:07:42;98706.44;;;10.21;48.72
58668;BME280;59852;43.086;25.634;2023-02-22T04:10:08;98705.94;;;10.16;49.09
58668;BME280;59852;43.086;25.634;2023-02-22T04:12:37;98700.06;;;10.12;49.01
58668;BME280;59852;43.086;25.634;2023-02-22T04:15:03;98702.47;;;10.15;49.03
58668;BME280;59852;43.086;25.634;2023-02-22T04:17:28;98703.31;;;10.16;49.46
58668;BME280;59852;43.086;25.634;2023-02-22T04:19:54;98705.09;;;10.02;49.95
58668;BME280;59852;43.086;25.634;2023-02-22T04:22:19;98705.50;;;10.09;49.79
58668;BME280;59852;43.086;25.634;2023-02-22T04:24:44;98709.69;;;10.12;49.31
58668;BME280;59852;43.086;25.634;2023-02-22T04:27:10;98709.88;;;10.21;49.04
58668;BME280;59852;43.086;25.634;2023-02-22T04:29:35;98706.75;;;10.16;49.03
58668;BME280;59852;43.086;25.634;2023-02-22T04:32:01;98709.50;;;9.89;50.10
58668;BME280;59852;43.086;25.634;2023-02-22T04:34:26;98708.16;;;9.96;50.54
58668;BME280;59852;43.086;25.634;2023-02-22T04:36:51;98707.28;;;10.09;50.56
58668;BME280;59852;43.086;25.634;2023-02-22T04:39:17;98714.31;;;9.95;50.79
58668;BME280;59852;43.086;25.634;2023-02-22T04:41:42;98707.63;;;9.91;51.38
58668;BME280;59852;43.086;25.634;2023-02-22T04:44:07;98715.28;;;9.94;50.75
58668;BME280;59852;43.086;25.634;2023-02-22T04:46:33;98710.44;;;10.01;50.94
58668;BME280;59852;43.086;25.634;2023-02-22T04:48:58;98710.69;;;9.85;51.23
58668;BME280;59852;43.086;25.634;2023-02-22T04:51:24;98720.78;;;9.90;51.72
58668;BME280;59852;43.086;25.634;2023-02-22T04:53:49;98722.97;;;9.83;51.97
58668;BME280;59852;43.086;25.634;2023-02-22T04:56:17;98723.09;;;9.82;51.48
58668;BME280;59852;43.086;25.634;2023-02-22T04:58:43;98724.78;;;9.57;52.73
58668;BME280;59852;43.086;25.634;2023-02-22T05:01:09;98723.53;;;9.75;52.60
58668;BME280;59852;43.086;25.634;2023-02-22T05:03:37;98723.44;;;9.64;52.54
58668;BME280;59852;43.086;25.634;2023-02-22T05:06:03;98724.25;;;9.77;52.28
58668;BME280;59852;43.086;25.634;2023-02-22T05:08:28;98727.38;;;9.83;52.20
58668;BME280;59852;43.086;25.634;2023-02-22T05:10:53;98716.19;;;10.06;51.15
58668;BME280;59852;43.086;25.634;2023-02-22T05:13:19;98723.09;;;10.07;51.56
58668;BME280;59852;43.086;25.634;2023-02-22T05:15:44;98723.38;;;10.02;51.33
58668;BME280;59852;43.086;25.634;2023-02-22T05:18:10;98721.91;;;10.11;51.14
58668;BME280;59852;43.086;25.634;2023-02-22T05:20:35;98716.47;;;10.40;50.93
58668;BME280;59852;43.086;25.634;2023-02-22T05:23:00;98720.00;;;11.34;48.31
58668;BME280;59852;43.086;25.634;2023-02-22T05:25:26;98714.41;;;11.85;47.04
58668;BME280;59852;43.086;25.634;2023-02-22T05:27:52;98726.84;;;10.89;49.38
58668;BME280;59852;43.086;25.634;2023-02-22T05:30:19;98722.28;;;10.80;50.03
58668;BME280;59852;43.086;25.634;2023-02-22T05:32:45;98721.94;;;12.12;46.77
58668;BME280;59852;43.086;25.634;2023-02-22T05:35:10;98726.06;;;14.87;40.11
58668;BME280;59852;43.086;25.634;2023-02-22T05:37:35;98723.91;;;15.97;37.47
58668;BME280;59852;43.086;25.634;2023-02-22T05:40:01;98724.09;;;16.78;35.72
58668;BME280;59852;43.086;25.634;2023-02-22T05:42:26;98726.84;;;17.22;34.78
58668;BME280;59852;43.086;25.634;2023-02-22T05:44:52;98725.53;;;18.14;32.97
58668;BME280;59852;43.086;25.634;2023-02-22T05:47:17;98729.44;;;18.78;32.14
58668;BME280;59852;43.086;25.634;2023-02-22T05:49:42;98734.28;;;16.09;36.44
58668;BME280;59852;43.086;25.634;2023-02-22T05:52:08;98753.97;;;13.47;42.65
58668;BME280;59852;43.086;25.634;2023-02-22T05:54:33;98759.31;;;13.25;44.27
58668;BME280;59852;43.086;25.634;2023-02-22T05:56:58;98750.19;;;14.92;40.33
58668;BME280;59852;43.086;25.634;2023-02-22T05:59:24;98743.13;;;17.00;35.98
58668;BME280;59852;43.086;25.634;2023-02-22T06:01:49;98750.00;;;17.10;35.15
58668;BME280;59852;43.086;25.634;2023-02-22T06:04:14;98754.06;;;18.62;32.90
58668;BME280;59852;43.086;25.634;2023-02-22T06:06:39;98760.72;;;19.82;30.83
58668;BME280;59852;43.086;25.634;2023-02-22T06:09:05;98752.06;;;19.55;31.50
58668;BME280;59852;43.086;25.634;2023-02-22T06:11:30;98750.59;;;20.57;29.57
58668;BME280;59852;43.086;25.634;2023-02-22T06:13:55;98758.44;;;20.34;29.93
58668;BME280;59852;43.086;25.634;2023-02-22T06:16:21;98762.78;;;18.54;33.13
58668;BME280;59852;43.086;25.634;2023-02-22T06:18:46;98765.75;;;18.94;32.06
58668;BME280;59852;43.086;25.634;2023-02-22T06:21:12;98779.25;;;17.44;35.99
58668;BME280;59852;43.086;25.634;2023-02-22T06:23:37;98776.38;;;17.56;34.58
58668;BME280;59852;43.086;25.634;2023-02-22T06:26:03;98781.00;;;15.31;38.78
58668;BME280;59852;43.086;25.634;2023-02-22T06:28:28;98780.63;;;14.35;41.45
58668;BME280;59852;43.086;25.634;2023-02-22T06:30:53;98778.91;;;14.25;41.24
58668;BME280;59852;43.086;25.634;2023-02-22T06:33:19;98785.31;;;14.32;41.14
58668;BME280;59852;43.086;25.634;2023-02-22T06:35:44;98781.06;;;14.41;41.06
58668;BME280;59852;43.086;25.634;2023-02-22T06:38:10;98788.75;;;14.02;42.37
58668;BME280;59852;43.086;25.634;2023-02-22T06:40:36;98784.53;;;13.69;43.10
58668;BME280;59852;43.086;25.634;2023-02-22T06:43:01;98785.22;;;12.52;45.07
58668;BME280;59852;43.086;25.634;2023-02-22T06:45:26;98785.25;;;12.96;44.71
58668;BME280;59852;43.086;25.634;2023-02-22T06:47:52;98788.59;;;13.20;45.09
58668;BME280;59852;43.086;25.634;2023-02-22T06:50:19;98788.81;;;13.06;44.55
58668;BME280;59852;43.086;25.634;2023-02-22T06:52:45;98783.78;;;13.14;44.42
58668;BME280;59852;43.086;25.634;2023-02-22T06:55:15;98779.75;;;13.10;44.66
58668;BME280;59852;43.086;25.634;2023-02-22T06:57:40;98790.03;;;13.02;45.19
58668;BME280;59852;43.086;25.634;2023-02-22T07:00:05;98781.91;;;13.05;45.57
58668;BME280;59852;43.086;25.634;2023-02-22T07:02:31;98788.41;;;12.89;46.17
58668;BME280;59852;43.086;25.634;2023-02-22T07:04:56;98785.72;;;13.12;45.60
58668;BME280;59852;43.086;25.634;2023-02-22T07:07:22;98785.41;;;13.37;45.28
58668;BME280;59852;43.086;25.634;2023-02-22T07:09:49;98783.72;;;13.36;45.06
58668;BME280;59852;43.086;25.634;2023-02-22T07:12:14;98780.88;;;13.60;45.02
58668;BME280;59852;43.086;25.634;2023-02-22T07:14:39;98772.25;;;13.69;44.39
58668;BME280;59852;43.086;25.634;2023-02-22T07:17:05;98770.78;;;13.76;44.15
58668;BME280;59852;43.086;25.634;2023-02-22T07:19:31;98768.44;;;13.83;43.85
58668;BME280;59852;43.086;25.634;2023-02-22T07:21:57;98770.69;;;13.88;43.83
58668;BME280;59852;43.086;25.634;2023-02-22T07:24:23;98769.97;;;14.06;43.50
58668;BME280;59852;43.086;25.634;2023-02-22T07:26:49;98769.75;;;14.19;42.71
58668;BME280;59852;43.086;25.634;2023-02-22T07:29:14;98772.75;;;14.15;42.69
58668;BME280;59852;43.086;25.634;2023-02-22T07:31:39;98768.66;;;14.22;42.59
58668;BME280;59852;43.086;25.634;2023-02-22T07:34:05;98763.31;;;14.73;41.86
58668;BME280;59852;43.086;25.634;2023-02-22T07:36:30;98771.09;;;14.84;42.04
58668;BME280;59852;43.086;25.634;2023-02-22T07:38:56;98767.69;;;15.23;41.32
58668;BME280;59852;43.086;25.634;2023-02-22T07:41:21;98769.91;;;15.56;40.66
58668;BME280;59852;43.086;25.634;2023-02-22T07:43:49;98774.53;;;16.11;38.92
58668;BME280;59852;43.086;25.634;2023-02-22T07:46:14;98771.19;;;16.18;38.91
58668;BME280;59852;43.086;25.634;2023-02-22T07:48:40;98770.59;;;15.39;40.44
58668;BME280;59852;43.086;25.634;2023-02-22T07:51:05;98775.88;;;15.58;40.00
58668;BME280;59852;43.086;25.634;2023-02-22T07:53:31;98771.84;;;15.83;39.62
58668;BME280;59852;43.086;25.634;2023-02-22T07:56:01;98766.31;;;16.23;38.60
58668;BME280;59852;43.086;25.634;2023-02-22T07:58:27;98768.31;;;16.39;38.05
58668;BME280;59852;43.086;25.634;2023-02-22T08:00:53;98763.31;;;16.09;39.33
58668;BME280;59852;43.086;25.634;2023-02-22T08:03:19;98762.34;;;17.02;37.56
58668;BME280;59852;43.086;25.634;2023-02-22T08:05:46;98767.31;;;16.22;38.54
58668;BME280;59852;43.086;25.634;2023-02-22T08:08:12;98776.09;;;18.02;35.90
58668;BME280;59852;43.086;25.634;2023-02-22T08:10:39;98762.25;;;16.94;37.33
58668;BME280;59852;43.086;25.634;2023-02-22T08:13:05;98769.97;;;18.36;34.83
58668;BME280;59852;43.086;25.634;2023-02-22T08:15:32;98768.91;;;16.60;37.42
58668;BME280;59852;43.086;25.634;2023-02-22T08:17:58;98759.88;;;16.90;37.15
58668;BME280;59852;43.086;25.634;2023-02-22T08:20:25;98770.81;;;18.02;35.60
58668;BME280;59852;43.086;25.634;2023-02-22T08:22:50;98768.50;;;16.92;36.92
58668;BME280;59852;43.086;25.634;2023-02-22T08:25:16;98774.28;;;17.41;36.44
58668;BME280;59852;43.086;25.634;2023-02-22T08:27:43;98763.31;;;17.36;36.92
58668;BME280;59852;43.086;25.634;2023-02-22T08:30:16;98761.19;;;19.44;34.51
58668;BME280;59852;43.086;25.634;2023-02-22T08:32:41;98770.88;;;17.13;37.81
58668;BME280;59852;43.086;25.634;2023-02-22T08:35:07;98768.75;;;17.96;35.90
58668;BME280;59852;43.086;25.634;2023-02-22T08:37:32;98760.66;;;17.18;37.13
58668;BME280;59852;43.086;25.634;2023-02-22T08:39:58;98766.88;;;19.58;34.30
58668;BME280;59852;43.086;25.634;2023-02-22T08:42:23;98766.28;;;17.33;37.20
58668;BME280;59852;43.086;25.634;2023-02-22T08:44:49;98763.53;;;17.61;36.85
58668;BME280;59852;43.086;25.634;2023-02-22T08:47:14;98752.94;;;16.89;37.88
58668;BME280;59852;43.086;25.634;2023-02-22T08:49:39;98767.59;;;17.19;37.81
58668;BME280;59852;43.086;25.634;2023-02-22T08:52:06;98766.09;;;16.99;38.35
58668;BME280;59852;43.086;25.634;2023-02-22T08:54:31;98764.97;;;17.02;37.95
58668;BME280;59852;43.086;25.634;2023-02-22T08:56:57;98756.28;;;16.64;38.38
58668;BME280;59852;43.086;25.634;2023-02-22T08:59:22;98754.91;;;16.87;38.76
58668;BME280;59852;43.086;25.634;2023-02-22T09:01:47;98755.59;;;17.07;38.50
58668;BME280;59852;43.086;25.634;2023-02-22T09:04:13;98750.41;;;16.43;38.95
58668;BME280;59852;43.086;25.634;2023-02-22T09:06:41;98752.91;;;16.44;38.84
58668;BME280;59852;43.086;25.634;2023-02-22T09:09:07;98755.19;;;16.57;38.81
58668;BME280;59852;43.086;25.634;2023-02-22T09:11:32;98749.28;;;16.45;39.45
58668;BME280;59852;43.086;25.634;2023-02-22T09:13:58;98762.28;;;16.19;39.78
58668;BME280;59852;43.086;25.634;2023-02-22T09:16:23;98758.72;;;16.11;40.01
58668;BME280;59852;43.086;25.634;2023-02-22T09:18:48;98761.91;;;16.14;40.51
58668;BME280;59852;43.086;25.634;2023-02-22T09:21:14;98753.75;;;15.98;40.30
58668;BME280;59852;43.086;25.634;2023-02-22T09:23:39;98756.63;;;16.42;39.74
58668;BME280;59852;43.086;25.634;2023-02-22T09:26:07;98756.38;;;16.08;40.25
58668;BME280;59852;43.086;25.634;2023-02-22T09:28:32;98762.50;;;15.98;40.26
58668;BME280;59852;43.086;25.634;2023-02-22T09:30:57;98750.06;;;15.71;40.64
58668;BME280;59852;43.086;25.634;2023-02-22T09:33:23;98750.94;;;16.09;39.96
58668;BME280;59852;43.086;25.634;2023-02-22T09:35:50;98741.00;;;15.93;40.16
58668;BME280;59852;43.086;25.634;2023-02-22T09:38:17;98748.34;;;15.90;40.94
58668;BME280;59852;43.086;25.634;2023-02-22T09:40:53;98753.53;;;16.19;40.22
58668;BME280;59852;43.086;25.634;2023-02-22T09:48:26;98744.41;;;16.13;40.47
58668;BME280;59852;43.086;25.634;2023-02-22T09:50:56;98747.13;;;16.21;40.69
58668;BME280;59852;43.086;25.634;2023-02-22T09:56:03;98745.53;;;16.01;40.55
58668;BME280;59852;43.086;25.634;2023-02-22T09:58:42;98737.44;;;16.12;40.47
58668;BME280;59852;43.086;25.634;2023-02-22T10:06:37;98732.88;;;16.14;40.33
58668;BME280;59852;43.086;25.634;2023-02-22T10:09:04;98730.25;;;16.14;40.20
58668;BME280;59852;43.086;25.634;2023-02-22T10:16:45;98717.00;;;16.24;39.52
58668;BME280;59852;43.086;25.634;2023-02-22T10:24:37;98709.78;;;16.26;39.59
58668;BME280;59852;43.086;25.634;2023-02-22T10:27:18;98706.53;;;16.59;39.80
58668;BME280;59852;43.086;25.634;2023-02-22T10:29:48;98701.16;;;16.51;38.63
58668;BME280;59852;43.086;25.634;2023-02-22T10:32:18;98706.53;;;16.59;38.89
58668;BME280;59852;43.086;25.634;2023-02-22T10:34:49;98702.00;;;16.52;38.58
58668;BME280;59852;43.086;25.634;2023-02-22T10:37:28;98695.56;;;16.37;39.32
58668;BME280;59852;43.086;25.634;2023-02-22T10:39:56;98697.16;;;16.75;38.60
58668;BME280;59852;43.086;25.634;2023-02-22T10:42:24;98687.28;;;16.49;38.72
58668;BME280;59852;43.086;25.634;2023-02-22T10:44:50;98684.16;;;16.63;39.01
58668;BME280;59852;43.086;25.634;2023-02-22T10:47:15;98675.97;;;16.57;38.76
58668;BME280;59852;43.086;25.634;2023-02-22T10:49:45;98682.97;;;16.76;38.58
58668;BME280;59852;43.086;25.634;2023-02-22T10:54:49;98679.38;;;16.67;38.60
58668;BME280;59852;43.086;25.634;2023-02-22T10:57:18;98676.63;;;16.69;38.11
58668;BME280;59852;43.086;25.634;2023-02-22T10:59:44;98674.28;;;16.38;38.53
58668;BME280;59852;43.086;25.634;2023-02-22T11:02:22;98672.97;;;16.52;38.27
58668;BME280;59852;43.086;25.634;2023-02-22T11:04:49;98674.94;;;16.68;38.13
58668;BME280;59852;43.086;25.634;2023-02-22T11:09:45;98672.88;;;16.61;38.03
58668;BME280;59852;43.086;25.634;2023-02-22T11:12:19;98664.38;;;16.68;38.73
58668;BME280;59852;43.086;25.634;2023-02-22T11:14:45;98670.69;;;16.84;37.94
58668;BME280;59852;43.086;25.634;2023-02-22T11:17:12;98675.47;;;16.71;37.98
58668;BME280;59852;43.086;25.634;2023-02-22T11:19:45;98672.16;;;16.69;38.32
58668;BME280;59852;43.086;25.634;2023-02-22T11:22:12;98657.97;;;16.70;38.30
58668;BME280;59852;43.086;25.634;2023-02-22T11:24:57;98657.06;;;16.79;38.13
58668;BME280;59852;43.086;25.634;2023-02-22T11:27:36;98646.81;;;16.76;38.40
58668;BME280;59852;43.086;25.634;2023-02-22T11:32:44;98655.09;;;16.63;38.48
58668;BME280;59852;43.086;25.634;2023-02-22T11:35:19;98660.19;;;16.75;38.92
58668;BME280;59852;43.086;25.634;2023-02-22T11:37:45;98656.34;;;16.59;38.68
58668;BME280;59852;43.086;25.634;2023-02-22T11:40:20;98648.03;;;16.37;39.07
58668;BME280;59852;43.086;25.634;2023-02-22T11:43:04;98642.13;;;16.70;39.19
58668;BME280;59852;43.086;25.634;2023-02-22T11:45:31;98638.91;;;16.76;38.56
58668;BME280;59852;43.086;25.634;2023-02-22T11:47:58;98647.41;;;16.52;38.76
58668;BME280;59852;43.086;25.634;2023-02-22T11:52:55;98643.72;;;16.81;38.80
58668;BME280;59852;43.086;25.634;2023-02-22T11:57:56;98640.41;;;16.79;38.45
58668;BME280;59852;43.086;25.634;2023-02-22T12:00:41;98634.38;;;16.69;38.70
58668;BME280;59852;43.086;25.634;2023-02-22T12:03:12;98624.56;;;16.79;38.98
58668;BME280;59852;43.086;25.634;2023-02-22T12:05:52;98640.50;;;16.59;38.95
58668;BME280;59852;43.086;25.634;2023-02-22T12:11:16;98633.25;;;16.61;39.04
58668;BME280;59852;43.086;25.634;2023-02-22T12:21:17;98622.69;;;16.61;39.61
58668;BME280;59852;43.086;25.634;2023-02-22T12:28:38;98625.53;;;16.78;39.34
58668;BME280;59852;43.086;25.634;2023-02-22T12:36:14;98618.56;;;16.59;40.12
58668;BME280;59852;43.086;25.634;2023-02-22T12:38:41;98622.28;;;16.66;39.96
58668;BME280;59852;43.086;25.634;2023-02-22T12:51:02;98610.59;;;16.69;40.23
58668;BME280;59852;43.086;25.634;2023-02-22T12:53:32;98619.38;;;16.59;40.16
58668;BME280;59852;43.086;25.634;2023-02-22T12:56:01;98619.91;;;16.73;40.35
58668;BME280;59852;43.086;25.634;2023-02-22T12:58:39;98616.72;;;16.69;40.11
58668;BME280;59852;43.086;25.634;2023-02-22T13:01:13;98621.34;;;16.57;40.53
58668;BME280;59852;43.086;25.634;2023-02-22T13:03:42;98602.13;;;16.47;40.40
58668;BME280;59852;43.086;25.634;2023-02-22T13:06:15;98623.00;;;16.58;40.85
58668;BME280;59852;43.086;25.634;2023-02-22T13:18:45;98604.38;;;16.60;40.77
58668;BME280;59852;43.086;25.634;2023-02-22T13:24:01;98608.16;;;16.57;40.86
58668;BME280;59852;43.086;25.634;2023-02-22T13:29:05;98609.50;;;16.44;40.99
58668;BME280;59852;43.086;25.634;2023-02-22T13:54:14;98611.19;;;16.45;41.36
58668;BME280;59852;43.086;25.634;2023-02-22T13:56:42;98615.28;;;16.29;41.67
58668;BME280;59852;43.086;25.634;2023-02-22T13:59:20;98620.97;;;16.34;41.63
58668;BME280;59852;43.086;25.634;2023-02-22T14:01:49;98616.03;;;16.22;41.62
58668;BME280;59852;43.086;25.634;2023-02-22T14:04:18;98621.59;;;16.19;41.71
58668;BME280;59852;43.086;25.634;2023-02-22T14:06:43;98621.94;;;16.33;41.57
58668;BME280;59852;43.086;25.634;2023-02-22T14:09:13;98621.91;;;16.16;41.93
58668;BME280;59852;43.086;25.634;2023-02-22T14:11:43;98619.41;;;16.14;42.14
58668;BME280;59852;43.086;25.634;2023-02-22T14:14:09;98622.22;;;16.13;41.91
58668;BME280;59852;43.086;25.634;2023-02-22T14:16:35;98620.41;;;16.13;42.22
58668;BME280;59852;43.086;25.634;2023-02-22T14:19:17;98629.72;;;16.08;42.48
58668;BME280;59852;43.086;25.634;2023-02-22T14:24:19;98623.38;;;16.00;42.57
58668;BME280;59852;43.086;25.634;2023-02-22T14:26:54;98624.78;;;15.95;42.69
58668;BME280;59852;43.086;25.634;2023-02-22T14:29:20;98631.50;;;15.80;43.44
58668;BME280;59852;43.086;25.634;2023-02-22T14:34:12;98634.41;;;15.86;43.36
58668;BME280;59852;43.086;25.634;2023-02-22T14:41:40;98619.34;;;15.69;43.43
58668;BME280;59852;43.086;25.634;2023-02-22T14:44:07;98624.63;;;15.59;43.64
58668;BME280;59852;43.086;25.634;2023-02-22T14:46:36;98618.38;;;15.70;43.42
58668;BME280;59852;43.086;25.634;2023-02-22T14:49:04;98619.88;;;15.72;43.55
58668;BME280;59852;43.086;25.634;2023-02-22T14:51:39;98620.31;;;15.68;43.79
58668;BME280;59852;43.086;25.634;2023-02-22T14:54:14;98623.41;;;15.54;44.19
58668;BME280;59852;43.086;25.634;2023-02-22T14:56:46;98615.63;;;15.52;44.24
58668;BME280;59852;43.086;25.634;2023-02-22T14:59:20;98609.66;;;15.50;44.46
58668;BME280;59852;43.086;25.634;2023-02-22T15:01:48;98618.72;;;15.38;44.45
58668;BME280;59852;43.086;25.634;2023-02-22T15:06:44;98619.00;;;15.44;45.15
58668;BME280;59852;43.086;25.634;2023-02-22T15:09:18;98620.66;;;15.45;44.61
58668;BME280;59852;43.086;25.634;2023-02-22T15:11:52;98621.41;;;15.18;45.27
58668;BME280;59852;43.086;25.634;2023-02-22T15:14:21;98619.16;;;15.24;45.71
58668;BME280;59852;43.086;25.634;2023-02-22T15:16:56;98615.84;;;15.21;45.60
58668;BME280;59852;43.086;25.634;2023-02-22T15:19:24;98622.19;;;15.29;45.44
58668;BME280;59852;43.086;25.634;2023-02-22T15:21:52;98620.84;;;15.15;45.76
58668;BME280;59852;43.086;25.634;2023-02-22T15:24:25;98626.94;;;15.15;45.46
58668;BME280;59852;43.086;25.634;2023-02-22T15:26:51;98621.94;;;15.22;45.49
58668;BME280;59852;43.086;25.634;2023-02-22T15:29:19;98623.50;;;15.15;45.45
58668;BME280;59852;43.086;25.634;2023-02-22T15:31:45;98621.94;;;15.12;45.92
58668;BME280;59852;43.086;25.634;2023-02-22T15:36:39;98620.72;;;15.07;45.97